Time;durP1;ratioP1;P1;durP2;ratioP2;P2;SDS_P1;SDS_P2;PMS_P1;PMS_P2;Temp;Humidity;BMP_temperature;BMP_pressure;BME280_temperature;BME280_humidity;BME280_pressure;Samples;Min_cycle;Max_cycle;Signal;HPM_P1;HPM_P2
2022/08/22 00:00:14;;;;;;;4.10;1.83;;;20.50;71.50;;;;;;5015760;28;20026;-85
2022/08/22 00:02:54;;;;;;;5.00;2.15;;;20.50;71.70;;;;;;5016419;28;20021;-85
2022/08/22 00:05:34;;;;;;;5.97;2.22;;;20.60;71.40;;;;;;5016323;28;20040;-85
2022/08/22 00:08:17;;;;;;;6.32;2.28;;;20.70;71.40;;;;;;5012259;28;20181;-85
2022/08/22 00:11:04;;;;;;;4.10;1.98;;;20.70;70.70;;;;;;5013778;28;20030;-82
2022/08/22 00:13:36;;;;;;;3.10;1.92;;;20.70;73.60;;;;;;5012369;28;20030;-82
2022/08/22 00:16:29;;;;;;;4.13;2.10;;;20.70;76.20;;;;;;5011944;28;20034;-82
2022/08/22 00:19:22;;;;;;;4.00;2.22;;;20.70;77.40;;;;;;5013079;28;20030;-82
2022/08/22 00:22:23;;;;;;;4.07;1.88;;;20.70;80.90;;;;;;5011788;28;20022;-81
2022/08/22 00:25:01;;;;;;;5.55;2.35;;;20.70;81.10;;;;;;5010844;28;20057;-82
2022/08/22 00:27:38;;;;;;;3.92;2.28;;;20.80;82.20;;;;;;5016451;28;20058;-82
2022/08/22 00:30:10;;;;;;;5.25;2.17;;;20.80;82.70;;;;;;5015364;28;20030;-82
2022/08/22 00:32:44;;;;;;;4.95;2.28;;;20.70;82.90;;;;;;5015891;28;20080;-83
2022/08/22 00:35:25;;;;;;;7.95;2.30;;;20.70;83.40;;;;;;5015037;28;20417;-82
2022/08/22 00:38:04;;;;;;;5.70;2.22;;;20.70;82.90;;;;;;5015879;28;20045;-82
2022/08/22 00:41:13;;;;;;;5.45;2.30;;;20.70;82.10;;;;;;5016150;28;20034;-82
2022/08/22 00:43:51;;;;;;;5.97;2.47;;;20.70;81.60;;;;;;5015975;28;20123;-82
2022/08/22 00:46:51;;;;;;;4.95;2.10;;;20.70;81.00;;;;;;5015866;28;20030;-87
2022/08/22 00:49:36;;;;;;;4.68;2.33;;;20.70;80.20;;;;;;5016074;28;20033;-88
2022/08/22 00:52:29;;;;;;;4.15;2.38;;;20.60;79.60;;;;;;5015418;28;20029;-88
2022/08/22 00:55:33;;;;;;;3.83;2.15;;;20.60;78.80;;;;;;5014930;28;20025;-88
2022/08/22 00:58:04;;;;;;;2.83;1.85;;;20.60;78.50;;;;;;5022215;28;20034;-87
2022/08/22 01:00:38;;;;;;;3.50;2.10;;;20.50;78.00;;;;;;5017631;28;20115;-87
2022/08/22 01:03:40;;;;;;;3.42;1.98;;;20.50;77.80;;;;;;5004710;28;20044;-88
2022/08/22 01:06:17;;;;;;;2.92;2.10;;;20.50;77.60;;;;;;5018124;28;20034;-87
2022/08/22 01:09:17;;;;;;;6.85;1.80;;;20.50;78.10;;;;;;5014648;28;20049;-81
2022/08/22 01:12:23;;;;;;;4.43;2.30;;;20.40;78.30;;;;;;5017647;28;20125;-84
2022/08/22 01:15:04;;;;;;;3.35;2.03;;;20.40;78.20;;;;;;4989262;28;20479;-82
2022/08/22 01:17:54;;;;;;;4.55;2.20;;;20.30;78.30;;;;;;5035333;28;20037;-83
2022/08/22 01:20:41;;;;;;;5.20;2.38;;;20.30;78.20;;;;;;5036092;28;20056;-84
2022/08/22 01:23:44;;;;;;;4.68;2.10;;;20.30;78.00;;;;;;5034534;28;20068;-83
2022/08/22 01:26:31;;;;;;;4.53;2.03;;;20.20;78.00;;;;;;5035860;28;20084;-85
2022/08/22 01:29:34;;;;;;;8.40;2.67;;;20.20;77.80;;;;;;5034816;28;20052;-84
2022/08/22 01:32:43;;;;;;;3.85;2.00;;;20.10;77.80;;;;;;5034289;28;20048;-85
2022/08/22 01:35:35;;;;;;;2.45;1.90;;;20.00;77.80;;;;;;5035302;28;20037;-83
2022/08/22 01:38:04;;;;;;;3.08;1.98;;;20.00;77.80;;;;;;5034539;28;20060;-82
2022/08/22 01:40:37;;;;;;;3.28;1.95;;;20.00;77.80;;;;;;5034573;28;20091;-82
2022/08/22 01:43:25;;;;;;;4.78;2.28;;;20.00;77.60;;;;;;5034160;28;20026;-81
2022/08/22 01:46:18;;;;;;;3.85;2.33;;;20.00;77.70;;;;;;5035241;28;20029;-81
2022/08/22 01:48:54;;;;;;;6.82;2.50;;;20.00;77.70;;;;;;5034438;28;20164;-82
2022/08/22 01:51:24;;;;;;;5.47;2.15;;;20.00;77.40;;;;;;5035433;28;20037;-82
2022/08/22 01:54:09;;;;;;;4.68;2.28;;;20.00;77.20;;;;;;5034407;28;20431;-82
2022/08/22 01:56:41;;;;;;;4.78;2.30;;;19.90;77.20;;;;;;5035451;28;20057;-82
2022/08/22 01:59:27;;;;;;;3.25;2.38;;;20.00;77.50;;;;;;5034149;28;20033;-82
2022/08/22 02:02:03;;;;;;;4.25;2.05;;;20.00;77.60;;;;;;5035132;28;20485;-82
2022/08/22 02:04:45;;;;;;;5.57;2.38;;;19.90;77.30;;;;;;5034406;28;20048;-82
2022/08/22 02:07:29;;;;;;;5.10;2.50;;;19.80;77.50;;;;;;5034360;28;20053;-82
2022/08/22 02:10:05;;;;;;;3.92;2.08;;;19.80;77.60;;;;;;5016947;28;20025;-80
2022/08/22 02:12:46;;;;;;;5.00;2.13;;;19.80;77.90;;;;;;5034914;28;20029;-80
2022/08/22 02:15:18;;;;;;;3.53;2.03;;;19.80;78.10;;;;;;5034294;28;20029;-80
2022/08/22 02:18:07;;;;;;;3.17;2.13;;;19.80;78.00;;;;;;5034511;28;20036;-80
2022/08/22 02:20:54;;;;;;;5.45;2.30;;;19.80;78.20;;;;;;5034687;28;20532;-80
2022/08/22 02:23:42;;;;;;;4.03;2.10;;;19.80;78.10;;;;;;5034363;28;20064;-80
2022/08/22 02:26:40;;;;;;;4.22;2.28;;;19.70;78.20;;;;;;5032915;28;20029;-81
2022/08/22 02:29:12;;;;;;;5.40;2.10;;;19.70;78.20;;;;;;5033623;28;20032;-82
2022/08/22 02:32:30;;;;;;;5.63;2.67;;;19.70;78.50;;;;;;5016937;28;20094;-82
2022/08/22 02:35:16;;;;;;;5.22;2.35;;;19.70;78.80;;;;;;4971344;28;20132;-82
2022/08/22 02:37:54;;;;;;;3.95;2.30;;;19.60;79.00;;;;;;5017132;28;20037;-82
2022/08/22 02:40:27;;;;;;;5.70;2.22;;;19.50;79.20;;;;;;5016292;28;20040;-82
2022/08/22 02:43:17;;;;;;;4.03;2.28;;;19.50;79.10;;;;;;5016597;28;20463;-82
2022/08/22 02:45:55;;;;;;;5.37;1.93;;;19.50;79.20;;;;;;5034138;28;20089;-82
2022/08/22 02:48:49;;;;;;;3.83;2.30;;;19.60;79.30;;;;;;5016529;28;20267;-82
2022/08/22 02:51:46;;;;;;;6.13;2.35;;;19.50;79.40;;;;;;5033816;28;20114;-82
2022/08/22 02:54:38;;;;;;;4.43;2.20;;;19.50;79.50;;;;;;5015956;28;20029;-82
2022/08/22 02:57:13;;;;;;;6.88;2.28;;;19.50;79.40;;;;;;4988060;28;20057;-81
2022/08/22 03:00:22;;;;;;;4.32;2.33;;;19.40;79.60;;;;;;5033661;28;20025;-82
2022/08/22 03:03:06;;;;;;;4.70;2.35;;;19.50;79.80;;;;;;5016276;28;20025;-82
2022/08/22 03:05:37;;;;;;;5.18;2.55;;;19.40;79.70;;;;;;5034334;28;20034;-82
2022/08/22 03:08:21;;;;;;;5.05;2.20;;;19.40;79.80;;;;;;5016118;28;20053;-81
2022/08/22 03:10:53;;;;;;;5.70;2.35;;;19.40;79.80;;;;;;5034377;28;20031;-82
2022/08/22 03:13:35;;;;;;;5.63;2.35;;;19.30;79.60;;;;;;5016188;28;20021;-83
2022/08/22 03:16:37;;;;;;;3.60;1.98;;;19.30;79.60;;;;;;5015879;28;20025;-82
2022/08/22 03:19:02;;;;;;;3.95;2.00;;;19.20;79.50;;;;;;5029189;28;20045;-82
2022/08/22 03:21:44;;;;;;;4.60;2.28;;;19.20;79.30;;;;;;5016181;28;20053;-82
2022/08/22 03:24:50;;;;;;;5.07;2.05;;;19.20;79.40;;;;;;5016196;28;20120;-82
2022/08/22 03:27:33;;;;;;;3.92;2.05;;;19.10;79.40;;;;;;5033232;28;20312;-81
2022/08/22 03:30:15;;;;;;;3.70;2.15;;;19.10;79.50;;;;;;5016400;28;20025;-82
2022/08/22 03:32:51;;;;;;;4.57;2.10;;;19.10;79.40;;;;;;5016670;28;20033;-81
2022/08/22 03:35:22;;;;;;;3.20;2.08;;;19.00;79.60;;;;;;5015852;28;20192;-81
2022/08/22 03:37:53;;;;;;;4.85;2.10;;;18.90;79.70;;;;;;5033967;28;20463;-81
2022/08/22 03:40:18;;;;;;;3.70;1.90;;;18.90;79.70;;;;;;5016121;28;20021;-82
2022/08/22 03:43:02;;;;;;;3.33;1.90;;;18.90;79.60;;;;;;5033920;28;20259;-81
2022/08/22 03:45:52;;;;;;;5.70;2.10;;;18.90;79.80;;;;;;5016358;28;20116;-80
2022/08/22 03:48:35;;;;;;;4.38;2.22;;;18.90;79.70;;;;;;5033313;28;20118;-81
2022/08/22 03:51:29;;;;;;;3.65;2.15;;;18.80;80.00;;;;;;5015700;28;20029;-82
2022/08/22 03:54:16;;;;;;;3.67;1.95;;;18.80;80.10;;;;;;4997824;28;20033;-81
2022/08/22 03:57:39;;;;;;;5.47;1.88;;;18.70;80.10;;;;;;5033455;28;20030;-81
2022/08/22 04:00:39;;;;;;;4.20;2.15;;;18.80;80.20;;;;;;4952732;28;20041;-82
2022/08/22 04:03:22;;;;;;;6.40;2.33;;;18.70;80.40;;;;;;4940858;29;20493;-82
2022/08/22 04:05:58;;;;;;;5.80;2.35;;;18.70;80.50;;;;;;5005328;28;20037;-81
2022/08/22 04:08:48;;;;;;;6.97;2.22;;;18.60;80.80;;;;;;5019307;28;20519;-81
2022/08/22 04:11:32;;;;;;;4.30;2.05;;;18.60;81.10;;;;;;5019460;28;20029;-81
2022/08/22 04:14:27;;;;;;;10.32;2.55;;;18.50;81.20;;;;;;5037340;28;20037;-82
2022/08/22 04:17:14;;;;;;;7.25;2.58;;;18.50;81.60;;;;;;5002624;28;20037;-81
2022/08/22 04:20:04;;;;;;;4.90;2.15;;;18.40;81.80;;;;;;5019907;28;20025;-81
2022/08/22 04:23:02;;;;;;;3.60;2.22;;;18.40;82.10;;;;;;5019817;28;20021;-81
2022/08/22 04:25:44;;;;;;;3.88;2.42;;;18.40;82.50;;;;;;5021489;28;20042;-81
2022/08/22 04:28:30;;;;;;;6.93;2.47;;;18.30;82.40;;;;;;5019273;28;20029;-81
2022/08/22 04:31:10;;;;;;;4.13;2.17;;;18.30;82.50;;;;;;5036998;28;20029;-81
2022/08/22 04:33:48;;;;;;;8.55;2.50;;;18.20;82.60;;;;;;5037081;28;20021;-81
2022/08/22 04:36:47;;;;;;;5.70;2.17;;;18.20;82.70;;;;;;5018950;28;20092;-83
2022/08/22 04:39:20;;;;;;;4.13;2.38;;;18.20;82.90;;;;;;5018173;28;20049;-83
2022/08/22 04:42:13;;;;;;;5.60;2.40;;;18.20;83.00;;;;;;5036754;28;20049;-83
2022/08/22 04:45:06;;;;;;;5.75;2.72;;;18.20;83.40;;;;;;5019346;28;20109;-83
2022/08/22 04:47:47;;;;;;;6.85;2.13;;;18.10;83.70;;;;;;5018888;28;20029;-83
2022/08/22 04:50:29;;;;;;;4.13;2.10;;;18.10;84.10;;;;;;5019109;28;20040;-88
2022/08/22 04:53:01;;;;;;;;;;;18.00;84.60;;;;;;5037184;28;20028;-88
2022/08/22 04:55:45;;;;;;;6.60;2.80;;;18.00;85.50;;;;;;5018898;28;20418;-88
2022/08/22 04:58:27;;;;;;;4.07;2.50;;;17.90;85.50;;;;;;5018597;28;20537;-89
2022/08/22 05:01:15;;;;;;;4.63;2.70;;;17.90;86.20;;;;;;5019095;28;20033;-81
2022/08/22 05:04:00;;;;;;;6.72;2.28;;;17.90;86.50;;;;;;5036117;28;20103;-82
2022/08/22 05:06:30;;;;;;;4.68;2.83;;;17.80;87.10;;;;;;5018157;28;20032;-81
2022/08/22 05:09:01;;;;;;;4.55;2.47;;;17.80;86.90;;;;;;5018640;28;20046;-83
2022/08/22 05:11:28;;;;;;;4.03;2.60;;;17.80;87.10;;;;;;5035815;28;20455;-84
2022/08/22 05:13:59;;;;;;;4.15;2.55;;;17.80;87.20;;;;;;5018879;28;20034;-84
2022/08/22 05:16:35;;;;;;;5.90;2.58;;;17.80;87.30;;;;;;5018440;28;20036;-83
2022/08/22 05:19:06;;;;;;;6.93;2.55;;;17.80;87.40;;;;;;5018755;28;20128;-84
2022/08/22 05:21:37;;;;;;;3.60;2.25;;;17.80;87.60;;;;;;5018731;28;20532;-84
2022/08/22 05:24:21;;;;;;;4.93;3.03;;;17.80;87.40;;;;;;5035861;28;20089;-82
2022/08/22 05:26:51;;;;;;;5.30;2.40;;;17.90;87.30;;;;;;5036282;28;20033;-83
2022/08/22 05:29:21;;;;;;;5.07;2.90;;;17.80;87.40;;;;;;5035331;28;20104;-82
2022/08/22 05:32:11;;;;;;;6.05;2.63;;;17.80;87.60;;;;;;5018518;28;20405;-82
2022/08/22 05:34:39;;;;;;;5.45;2.58;;;17.80;87.90;;;;;;5017959;28;20040;-82
2022/08/22 05:37:09;;;;;;;4.75;2.55;;;17.90;87.60;;;;;;5017590;28;20041;-82
2022/08/22 05:39:38;;;;;;;6.53;2.17;;;17.90;87.40;;;;;;5035108;28;20021;-83
2022/08/22 05:42:12;;;;;;;4.30;2.45;;;17.90;87.00;;;;;;5017736;28;20037;-82
2022/08/22 05:44:38;;;;;;;7.55;2.53;;;17.90;86.80;;;;;;5035395;28;20057;-82
2022/08/22 05:47:18;;;;;;;5.70;2.40;;;18.00;86.60;;;;;;5034945;28;20069;-81
2022/08/22 05:49:56;;;;;;;4.25;2.20;;;18.00;86.30;;;;;;5018081;28;20075;-84
2022/08/22 05:52:41;;;;;;;4.45;2.70;;;18.10;86.30;;;;;;5017362;28;20489;-84
2022/08/22 05:55:36;;;;;;;5.60;2.15;;;18.20;86.10;;;;;;5017704;28;20025;-83
2022/08/22 05:58:20;;;;;;;8.00;2.72;;;18.30;85.90;;;;;;5028149;28;20072;-84
2022/08/22 06:00:52;;;;;;;4.40;2.30;;;18.30;85.50;;;;;;5035450;28;20032;-84
2022/08/22 06:03:35;;;;;;;5.43;2.60;;;18.40;85.50;;;;;;5035013;28;20105;-83
2022/08/22 06:06:08;;;;;;;2.92;2.13;;;18.40;85.30;;;;;;5017941;28;20034;-83
2022/08/22 06:08:42;;;;;;;3.75;2.15;;;18.40;85.20;;;;;;5017430;28;20475;-82
2022/08/22 06:11:20;;;;;;;8.25;2.33;;;18.40;85.20;;;;;;5017493;28;20021;-82
2022/08/22 06:13:55;;;;;;;5.05;2.08;;;18.50;85.10;;;;;;5017688;28;20029;-82
2022/08/22 06:16:33;;;;;;;4.75;2.42;;;18.50;84.80;;;;;;5016734;28;20067;-82
2022/08/22 06:18:59;;;;;;;5.18;2.13;;;18.50;84.60;;;;;;5017577;28;20091;-82
2022/08/22 06:21:31;;;;;;;6.15;2.70;;;18.60;84.30;;;;;;5017062;28;20459;-82
2022/08/22 06:24:04;;;;;;;5.20;2.33;;;18.60;83.90;;;;;;5016821;28;20025;-82
2022/08/22 06:26:41;;;;;;;6.22;1.98;;;18.70;83.80;;;;;;5017200;28;20793;-82
2022/08/22 06:29:08;;;;;;;6.43;2.38;;;18.70;83.40;;;;;;5016835;28;20029;-81
2022/08/22 06:31:45;;;;;;;3.30;1.98;;;18.80;83.40;;;;;;5034423;28;20029;-82
2022/08/22 06:34:16;;;;;;;5.80;2.00;;;18.90;82.60;;;;;;5016483;28;20025;-82
2022/08/22 06:36:46;;;;;;;5.82;2.15;;;18.90;82.40;;;;;;5017218;28;20034;-82
2022/08/22 06:39:41;;;;;;;5.82;2.10;;;18.90;82.40;;;;;;5016913;28;20026;-82
2022/08/22 06:42:17;;;;;;;4.28;1.90;;;19.00;82.10;;;;;;5017012;28;20029;-82
2022/08/22 06:44:49;;;;;;;3.47;1.67;;;19.10;82.10;;;;;;5034270;28;20061;-82
2022/08/22 06:47:24;;;;;;;5.30;2.33;;;19.20;81.70;;;;;;5015967;28;20030;-82
2022/08/22 06:50:00;;;;;;;5.00;2.08;;;19.20;81.40;;;;;;5017147;28;20087;-82
2022/08/22 06:52:29;;;;;;;3.88;1.92;;;19.20;81.10;;;;;;5016539;28;20053;-82
2022/08/22 06:55:04;;;;;;;6.25;2.47;;;19.30;81.00;;;;;;5034392;28;20025;-82
2022/08/22 06:57:40;;;;;;;6.07;1.98;;;19.40;80.90;;;;;;5033119;28;20624;-83
2022/08/22 07:00:10;;;;;;;4.43;2.10;;;19.40;80.50;;;;;;5033956;28;20021;-83
2022/08/22 07:02:46;;;;;;;6.45;2.60;;;19.40;80.50;;;;;;5002514;28;20030;-83
2022/08/22 07:05:23;;;;;;;5.05;2.10;;;19.50;80.30;;;;;;4996352;28;20412;-82
2022/08/22 07:07:49;;;;;;;9.73;2.30;;;19.50;80.30;;;;;;5009752;28;20060;-81
2022/08/22 07:10:16;;;;;;;4.72;1.65;;;19.60;79.90;;;;;;5015497;28;20029;-82
2022/08/22 07:12:49;;;;;;;4.97;2.30;;;19.60;79.60;;;;;;5016344;28;20033;-83
2022/08/22 07:15:34;;;;;;;2.13;1.60;;;19.70;78.90;;;;;;5016116;28;20037;-83
2022/08/22 07:18:15;;;;;;;4.13;1.90;;;19.80;78.50;;;;;;5034025;28;20105;-83
2022/08/22 07:20:46;;;;;;;3.13;1.80;;;19.90;78.30;;;;;;5016804;28;20025;-83
2022/08/22 07:23:26;;;;;;;5.10;2.08;;;19.90;78.00;;;;;;5033684;28;20030;-82
2022/08/22 07:25:58;;;;;;;7.38;1.90;;;20.00;77.90;;;;;;5016709;28;20041;-83
2022/08/22 07:28:51;;;;;;;4.05;2.20;;;20.10;76.80;;;;;;5032503;28;20022;-84
2022/08/22 07:31:20;;;;;;;6.50;2.15;;;20.20;76.80;;;;;;5016084;28;20053;-85
2022/08/22 07:33:50;;;;;;;4.85;1.90;;;20.30;77.20;;;;;;5032917;28;20033;-84
2022/08/22 07:36:24;;;;;;;6.05;1.83;;;20.40;77.10;;;;;;5034905;28;20382;-85
2022/08/22 07:39:04;;;;;;;4.75;2.10;;;20.50;76.70;;;;;;5037658;28;20041;-85
2022/08/22 07:42:09;;;;;;;5.60;2.20;;;20.60;76.20;;;;;;5037273;28;20789;-84
2022/08/22 07:45:00;;;;;;;5.15;2.08;;;20.70;75.60;;;;;;5018297;28;20045;-84
2022/08/22 07:47:35;;;;;;;5.25;1.95;;;20.90;75.10;;;;;;5036591;28;20048;-84
2022/08/22 07:50:07;;;;;;;6.50;2.28;;;21.00;74.80;;;;;;5036724;28;20064;-85
2022/08/22 07:52:41;;;;;;;3.33;1.90;;;21.20;74.20;;;;;;5019781;28;20017;-81
2022/08/22 07:55:17;;;;;;;4.15;1.90;;;21.30;73.80;;;;;;5020311;28;20083;-81
2022/08/22 07:57:51;;;;;;;5.15;1.95;;;21.30;73.40;;;;;;5020249;28;20039;-81
2022/08/22 08:00:20;;;;;;;3.97;2.08;;;21.30;73.40;;;;;;5019803;28;20025;-82
2022/08/22 08:02:50;;;;;;;4.40;1.85;;;21.30;73.20;;;;;;5019753;28;20083;-82
2022/08/22 08:05:17;;;;;;;4.85;2.10;;;21.40;73.10;;;;;;5035991;28;20130;-82
2022/08/22 08:07:45;;;;;;;5.72;2.17;;;21.50;72.90;;;;;;5036672;28;20056;-83
2022/08/22 08:10:17;;;;;;;5.45;1.83;;;21.60;72.60;;;;;;5037115;28;20033;-84
2022/08/22 08:12:47;;;;;;;2.85;2.00;;;21.70;72.90;;;;;;5020064;28;20029;-85
2022/08/22 08:15:18;;;;;;;5.45;2.03;;;21.70;72.80;;;;;;5019827;28;20439;-81
2022/08/22 08:17:46;;;;;;;4.13;1.88;;;21.80;72.60;;;;;;5019820;28;20087;-81
2022/08/22 08:20:16;;;;;;;4.18;1.92;;;21.80;72.50;;;;;;5037087;28;20037;-83
2022/08/22 08:22:46;;;;;;;5.93;2.17;;;21.80;72.90;;;;;;5036508;28;20014;-82
2022/08/22 08:25:23;;;;;;;5.53;1.83;;;21.90;72.90;;;;;;5023984;28;20116;-82
2022/08/22 08:30:35;;;;;;;4.07;2.38;;;22.00;74.40;;;;;;5035132;28;20047;-82
2022/08/22 08:33:04;;;;;;;5.05;2.40;;;21.90;75.10;;;;;;5019169;28;20053;-82
2022/08/22 08:35:40;;;;;;;5.28;2.17;;;21.90;75.20;;;;;;5036410;28;20536;-83
2022/08/22 08:38:14;;;;;;;5.07;1.80;;;22.00;74.00;;;;;;5036772;28;20033;-84
2022/08/22 08:41:17;;;;;;;5.10;1.95;;;22.00;73.50;;;;;;5036842;28;20029;-85
2022/08/22 08:44:10;;;;;;;6.95;2.20;;;21.90;73.50;;;;;;5035970;28;20124;-84
2022/08/22 08:47:02;;;;;;;3.90;2.42;;;22.10;73.50;;;;;;5035951;28;20306;-84
2022/08/22 08:49:59;;;;;;;5.88;2.10;;;22.10;73.00;;;;;;5036062;28;20049;-83
2022/08/22 08:52:30;;;;;;;4.45;1.90;;;22.20;73.00;;;;;;5036373;28;20029;-83
2022/08/22 08:55:23;;;;;;;4.22;1.98;;;22.20;73.00;;;;;;5019573;28;20033;-83
2022/08/22 08:58:03;;;;;;;4.95;2.15;;;22.20;72.70;;;;;;5036005;28;20039;-84
2022/08/22 09:00:55;;;;;;;5.13;2.10;;;22.30;73.00;;;;;;5017971;28;20049;-85
2022/08/22 09:03:51;;;;;;;8.02;2.13;;;22.30;73.50;;;;;;5019726;28;20051;-83
2022/08/22 09:06:49;;;;;;;4.10;1.95;;;22.40;72.30;;;;;;5036139;28;20034;-82
2022/08/22 09:09:33;;;;;;;4.03;2.00;;;22.50;71.60;;;;;;5001978;28;20049;-84
2022/08/22 09:12:37;;;;;;;4.72;1.92;;;22.60;70.60;;;;;;5018528;28;20470;-82
2022/08/22 09:15:36;;;;;;;3.67;2.10;;;22.70;70.30;;;;;;5019002;28;20041;-83
2022/08/22 09:18:38;;;;;;;3.97;2.20;;;22.80;69.30;;;;;;5009548;28;20498;-83
2022/08/22 09:21:21;;;;;;;3.40;1.92;;;22.80;69.20;;;;;;5035465;28;20034;-82
2022/08/22 09:24:30;;;;;;;4.00;2.15;;;22.80;69.40;;;;;;5018448;28;20526;-82
2022/08/22 09:27:05;;;;;;;4.78;2.00;;;22.90;68.70;;;;;;5034881;28;20025;-82
2022/08/22 09:29:42;;;;;;;4.45;2.20;;;22.90;68.50;;;;;;5035332;28;20025;-82
2022/08/22 09:32:42;;;;;;;3.25;2.17;;;22.90;68.30;;;;;;5035607;28;20055;-84
2022/08/22 09:35:17;;;;;;;5.95;2.05;;;22.90;68.30;;;;;;5018318;28;20041;-84
2022/08/22 09:38:05;;;;;;;4.88;2.00;;;22.90;69.00;;;;;;5017754;28;20065;-85
2022/08/22 09:40:47;;;;;;;7.10;2.15;;;23.00;69.30;;;;;;5035243;28;20060;-82
2022/08/22 09:43:28;;;;;;;4.10;2.13;;;23.10;70.00;;;;;;5017948;28;20448;-84
2022/08/22 09:45:56;;;;;;;2.80;1.77;;;23.20;68.90;;;;;;5033728;28;20042;-83
2022/08/22 09:48:47;;;;;;;3.20;1.80;;;23.30;68.00;;;;;;5014560;28;20025;-86
2022/08/22 09:51:37;;;;;;;3.40;1.87;;;23.40;67.00;;;;;;5022952;28;20096;-82
2022/08/22 09:54:16;;;;;;;4.10;2.03;;;23.40;66.30;;;;;;5035095;28;20048;-84
2022/08/22 09:56:53;;;;;;;4.57;1.80;;;23.60;66.00;;;;;;5034709;28;20108;-82
2022/08/22 09:59:49;;;;;;;4.82;2.08;;;23.80;65.30;;;;;;5033773;28;20032;-85
2022/08/22 10:02:30;;;;;;;2.67;1.98;;;23.80;65.20;;;;;;5017443;28;20055;-82
2022/08/22 10:04:59;;;;;;;3.50;2.38;;;23.70;65.40;;;;;;5017238;28;20071;-81
2022/08/22 10:07:43;;;;;;;5.30;2.08;;;23.70;65.40;;;;;;5026672;28;20046;-82
2022/08/22 10:10:31;;;;;;;4.10;2.10;;;23.70;65.30;;;;;;4998478;28;20029;-83
2022/08/22 10:13:25;;;;;;;3.80;2.15;;;23.80;65.50;;;;;;5001052;28;20029;-83
2022/08/22 10:15:56;;;;;;;4.85;2.00;;;23.80;64.90;;;;;;4997452;28;20034;-84
2022/08/22 10:18:36;;;;;;;6.18;2.17;;;23.90;64.50;;;;;;4994654;28;20120;-84
2022/08/22 10:21:23;;;;;;;3.33;1.70;;;24.10;64.10;;;;;;4993282;28;20103;-88
2022/08/22 10:23:54;;;;;;;3.08;1.80;;;24.10;63.30;;;;;;4994460;28;20037;-85
2022/08/22 10:26:30;;;;;;;5.13;3.35;;;24.40;62.50;;;;;;4997405;28;20034;-85
2022/08/22 10:29:20;;;;;;;5.15;2.70;;;24.50;62.40;;;;;;4997728;28;20122;-86
2022/08/22 10:31:52;;;;;;;4.70;2.00;;;24.50;62.40;;;;;;4983314;28;20034;-85
2022/08/22 10:34:46;;;;;;;2.97;1.88;;;24.50;62.20;;;;;;5010656;28;20494;-85
2022/08/22 10:37:49;;;;;;;4.03;1.83;;;24.60;61.30;;;;;;4977112;28;20053;-86
2022/08/22 10:40:32;;;;;;;4.18;1.80;;;24.60;60.80;;;;;;4999360;28;20073;-84
2022/08/22 10:43:17;;;;;;;3.88;1.90;;;24.70;59.30;;;;;;4992821;28;20061;-89
2022/08/22 10:45:46;;;;;;;3.30;1.92;;;24.80;59.30;;;;;;4984828;28;20030;-82
2022/08/22 10:48:17;;;;;;;3.88;1.80;;;24.80;59.70;;;;;;4993754;28;20033;-84
2022/08/22 10:50:58;;;;;;;6.53;1.90;;;24.70;59.80;;;;;;5014449;28;20462;-84
2022/08/22 10:53:56;;;;;;;5.30;1.83;;;24.70;59.80;;;;;;5001277;28;20438;-84
2022/08/22 10:56:40;;;;;;;3.45;1.67;;;24.90;59.30;;;;;;5001605;28;20026;-83
2022/08/22 10:59:29;;;;;;;5.13;1.80;;;25.10;58.60;;;;;;4981951;28;20022;-88
2022/08/22 11:02:19;;;;;;;5.43;2.00;;;25.20;57.30;;;;;;5020610;28;20022;-88
2022/08/22 11:05:17;;;;;;;1.95;1.40;;;25.30;57.30;;;;;;4981713;28;20084;-85
2022/08/22 11:07:57;;;;;;;3.15;1.73;;;25.40;57.30;;;;;;5001119;28;20099;-90
2022/08/22 11:10:41;;;;;;;5.85;1.98;;;25.40;57.40;;;;;;5007842;28;20486;-89
2022/08/22 11:13:37;;;;;;;3.65;1.85;;;25.40;57.50;;;;;;5011039;28;20030;-89
2022/08/22 11:16:20;;;;;;;49.08;27.50;;;25.50;56.80;;;;;;5011128;28;20088;-91
2022/08/22 11:18:56;;;;;;;13.10;7.20;;;25.50;56.60;;;;;;5011789;28;20156;-93
2022/08/22 11:21:30;;;;;;;6.35;3.70;;;25.70;56.80;;;;;;5013371;28;20030;-86
2022/08/22 11:24:04;;;;;;;4.55;2.80;;;25.60;56.40;;;;;;4997953;28;20105;-87
2022/08/22 11:27:01;;;;;;;4.45;2.20;;;25.60;56.10;;;;;;5027852;28;20026;-89
2022/08/22 11:29:58;;;;;;;2.95;1.80;;;25.70;55.30;;;;;;5012057;28;20037;-91
2022/08/22 11:33:01;;;;;;;5.32;2.10;;;25.80;54.90;;;;;;5011921;28;20124;-90
2022/08/22 11:35:39;;;;;;;4.07;1.80;;;25.80;55.00;;;;;;5012314;28;20030;-90
2022/08/22 11:38:23;;;;;;;7.15;3.30;;;25.70;55.50;;;;;;5004422;28;20041;-88
2022/08/22 11:41:11;;;;;;;3.65;1.80;;;25.80;55.00;;;;;;5014662;28;20328;-87
2022/08/22 11:43:42;;;;;;;2.90;1.58;;;26.00;54.90;;;;;;5017150;28;20121;-88
2022/08/22 11:46:36;;;;;;;5.93;1.83;;;26.00;55.10;;;;;;5025163;28;20033;-91
2022/08/22 11:49:17;;;;;;;2.88;1.45;;;26.00;55.20;;;;;;5001207;28;20403;-88
2022/08/22 11:52:20;;;;;;;5.68;1.70;;;26.00;54.30;;;;;;5013587;28;20022;-89
2022/08/22 11:55:07;;;;;;;2.40;1.52;;;26.10;54.80;;;;;;4997222;28;20076;-89
2022/08/22 11:57:38;;;;;;;5.82;1.90;;;26.20;54.40;;;;;;5012811;28;20034;-89
2022/08/22 12:00:38;;;;;;;2.47;1.55;;;26.30;53.90;;;;;;5012167;28;20038;-86
2022/08/22 12:03:21;;;;;;;2.20;1.40;;;26.40;52.90;;;;;;5024307;28;20128;-88
2022/08/22 12:05:55;;;;;;;4.13;1.70;;;26.60;52.50;;;;;;5011997;28;20040;-91
2022/08/22 12:08:48;;;;;;;4.70;1.60;;;26.70;52.50;;;;;;5011538;28;20070;-93
2022/08/22 12:11:34;;;;;;;4.25;1.80;;;26.80;52.80;;;;;;5001429;28;20475;-93
2022/08/22 12:14:10;;;;;;;6.00;1.85;;;26.90;52.70;;;;;;5013155;28;20034;-88
2022/08/22 12:17:04;;;;;;;4.05;1.73;;;27.00;52.60;;;;;;5012018;28;20551;-88
2022/08/22 12:19:34;;;;;;;2.92;1.70;;;27.00;52.60;;;;;;5004879;28;20089;-89
2022/08/22 12:22:16;;;;;;;2.90;1.88;;;27.10;52.40;;;;;;5012727;28;20045;-88
2022/08/22 12:25:07;;;;;;;2.67;1.63;;;27.30;52.40;;;;;;5017428;28;20025;-91
2022/08/22 12:27:52;;;;;;;4.18;1.67;;;27.40;51.60;;;;;;5032628;28;20121;-93
2022/08/22 12:30:50;;;;;;;3.45;1.83;;;27.50;51.30;;;;;;5018374;28;20026;-91
2022/08/22 12:33:40;;;;;;;3.88;1.88;;;27.50;52.30;;;;;;5010418;28;20487;-87
2022/08/22 12:36:16;;;;;;;6.90;1.80;;;27.60;51.70;;;;;;5027492;28;20033;-87
2022/08/22 12:38:53;;;;;;;3.30;1.73;;;27.50;51.70;;;;;;5022153;28;20030;-88
2022/08/22 12:41:37;;;;;;;4.40;1.80;;;27.50;51.50;;;;;;5026671;28;20037;-87
2022/08/22 12:44:24;;;;;;;3.22;1.60;;;27.60;51.30;;;;;;5046408;28;20093;-87
2022/08/22 12:47:20;;;;;;;4.88;1.60;;;27.70;50.60;;;;;;5025652;28;20432;-85
2022/08/22 12:50:14;;;;;;;4.68;1.80;;;27.90;50.10;;;;;;5015148;28;20029;-87
2022/08/22 12:53:15;;;;;;;4.75;2.60;;;28.00;50.90;;;;;;5019184;28;20046;-83
2022/08/22 12:55:54;;;;;;;32.40;20.48;;;28.10;50.90;;;;;;5013473;28;20419;-85
2022/08/22 12:58:47;;;;;;;4.90;2.70;;;28.30;50.70;;;;;;5011915;28;20037;-88
2022/08/22 13:01:14;;;;;;;2.90;1.70;;;28.40;49.50;;;;;;5015587;28;20029;-86
2022/08/22 13:03:48;;;;;;;3.70;1.90;;;28.70;49.20;;;;;;5014188;28;20068;-85
2022/08/22 13:06:41;;;;;;;5.53;1.98;;;28.90;48.00;;;;;;5015860;28;20083;-84
2022/08/22 13:09:35;;;;;;;3.97;2.17;;;29.30;48.10;;;;;;5010099;28;20050;-84
2022/08/22 13:12:24;;;;;;;4.15;1.88;;;29.50;46.90;;;;;;5012092;28;20391;-85
2022/08/22 13:14:55;;;;;;;4.38;1.75;;;29.70;46.90;;;;;;4989630;28;20038;-84
2022/08/22 13:17:21;;;;;;;;;;;30.10;47.00;;;;;;5014445;28;20033;-84
2022/08/22 13:20:05;;;;;;;3.25;1.85;;;30.20;46.20;;;;;;5001933;28;19912;-84
2022/08/22 13:22:34;;;;;;;3.10;1.30;;;30.40;46.00;;;;;;5027192;28;20026;-83
2022/08/22 13:25:25;;;;;;;4.20;1.60;;;30.80;46.00;;;;;;5018011;28;20472;-84
2022/08/22 13:27:53;;;;;;;3.45;1.67;;;31.40;44.90;;;;;;4994017;28;20055;-86
2022/08/22 13:30:29;;;;;;;2.67;1.70;;;32.10;43.80;;;;;;5027585;28;20028;-89
2022/08/22 13:33:15;;;;;;;3.15;1.48;;;32.60;43.10;;;;;;5014670;28;20052;-88
2022/08/22 13:35:44;;;;;;;3.53;1.80;;;33.40;42.80;;;;;;5013152;28;20033;-87
2022/08/22 13:38:23;;;;;;;4.38;1.63;;;33.80;42.00;;;;;;5023833;28;20492;-90
2022/08/22 13:40:51;;;;;;;2.83;1.50;;;33.90;41.20;;;;;;5000335;28;20492;-88
2022/08/22 13:43:22;;;;;;;4.55;1.70;;;34.30;40.90;;;;;;5014688;28;20057;-85
2022/08/22 13:46:00;;;;;;;3.97;1.60;;;34.30;40.80;;;;;;5002898;28;20031;-87
2022/08/22 13:48:45;;;;;;;3.03;1.73;;;34.20;40.50;;;;;;5026833;28;20033;-92
2022/08/22 13:51:26;;;;;;;6.65;1.63;;;34.60;40.50;;;;;;5019122;28;20026;-92
2022/08/22 13:53:54;;;;;;;;;;;35.20;39.90;;;;;;5015866;28;20025;-93
2022/08/22 13:56:25;;;;;;;2.70;1.60;;;35.40;39.20;;;;;;5013375;28;19956;-87
2022/08/22 13:59:00;;;;;;;3.65;1.40;;;35.50;39.40;;;;;;5014194;28;20427;-87
2022/08/22 14:01:34;;;;;;;3.63;1.63;;;35.40;38.60;;;;;;5020043;28;20114;-87
2022/08/22 14:04:21;;;;;;;2.72;1.60;;;34.90;38.80;;;;;;5025417;28;20117;-86
2022/08/22 14:07:19;;;;;;;2.65;1.30;;;34.60;39.40;;;;;;5011993;28;20116;-85